createdAt,value
2024-01-10T00:00:41.086Z,103503.38
2024-01-10T00:03:08.261Z,103505.91
2024-01-10T00:05:36.040Z,103505.91
2024-01-10T00:08:03.170Z,103509.84
2024-01-10T00:10:30.130Z,103502.56
2024-01-10T00:12:56.995Z,103502.16
2024-01-10T00:15:23.862Z,103499.22
2024-01-10T00:17:50.936Z,103491.53
2024-01-10T00:20:18.014Z,103494.25
2024-01-10T00:22:45.512Z,103497.16
2024-01-10T00:25:12.427Z,103485.94
2024-01-10T00:27:39.309Z,103489.66
2024-01-10T00:30:07.564Z,103479.06
2024-01-10T00:32:34.657Z,103475.72
2024-01-10T00:35:01.737Z,103474.28
2024-01-10T00:37:28.715Z,103464.72
2024-01-10T00:39:55.685Z,103463.03
2024-01-10T00:42:22.543Z,103463.47
2024-01-10T00:44:49.524Z,103463.31
2024-01-10T00:47:16.455Z,103458.50
2024-01-10T00:49:43.337Z,103454.78
2024-01-10T00:52:10.295Z,103461.44
2024-01-10T00:54:37.478Z,103451.69
2024-01-10T00:57:04.586Z,103449.41
2024-01-10T00:59:31.710Z,103450.88
2024-01-10T01:01:58.697Z,103453.16
2024-01-10T01:04:25.620Z,103455.66
2024-01-10T01:06:52.703Z,103449.44
2024-01-10T01:09:20.175Z,103449.44
2024-01-10T01:11:47.333Z,103452.56
2024-01-10T01:14:14.294Z,103454.44
2024-01-10T01:16:41.212Z,103444.06
2024-01-10T01:19:08.060Z,103447.56
2024-01-10T01:21:34.981Z,103437.59
2024-01-10T01:24:01.915Z,103445.50
2024-01-10T01:26:28.786Z,103447.59
2024-01-10T01:28:55.707Z,103449.25
2024-01-10T01:31:22.647Z,103445.31
2024-01-10T01:33:49.686Z,103446.78
2024-01-10T01:36:17.107Z,103443.06
2024-01-10T01:38:44.113Z,103441.59
2024-01-10T01:41:11.112Z,103438.69
2024-01-10T01:43:38.163Z,103430.81
2024-01-10T01:46:05.347Z,103438.91
2024-01-10T01:48:33.347Z,103438.91
2024-01-10T01:51:04.868Z,103437.44
2024-01-10T01:53:31.894Z,103439.91
2024-01-10T01:56:04.716Z,103441.97
2024-01-10T01:58:31.819Z,103434.28
2024-01-10T02:00:59.611Z,103434.91
2024-01-10T02:03:27.877Z,103440.31
2024-01-10T02:05:55.478Z,103444.88
2024-01-10T02:08:24.652Z,103445.69
2024-01-10T02:10:51.660Z,103435.31
2024-01-10T02:13:19.347Z,103441.13
2024-01-10T02:15:46.452Z,103439.47
2024-01-10T02:18:13.498Z,103433.44
2024-01-10T02:20:40.337Z,103434.47
2024-01-10T02:23:07.476Z,103431.97
2024-01-10T02:25:35.934Z,103433.44
2024-01-10T02:28:02.838Z,103421.19
2024-01-10T02:30:29.792Z,103424.91
2024-01-10T02:32:56.772Z,103427.41
2024-01-10T02:35:23.827Z,103414.97
2024-01-10T02:37:52.865Z,103415.59
2024-01-10T02:40:19.919Z,103419.31
2024-01-10T02:42:46.946Z,103412.25
2024-01-10T02:45:14.598Z,103412.25
2024-01-10T02:47:41.707Z,103416.81
2024-01-10T02:50:08.904Z,103406.03
2024-01-10T02:52:36.165Z,103417.66
2024-01-10T02:55:03.111Z,103409.56
2024-01-10T02:57:30.111Z,103406.88
2024-01-10T02:59:57.125Z,103409.78
2024-01-10T03:02:24.875Z,103407.50
2024-01-10T03:04:51.901Z,103409.34
2024-01-10T03:07:18.815Z,103417.44
2024-01-10T03:09:45.759Z,103406.44
2024-01-10T03:12:13.137Z,103405.81
2024-01-10T03:14:40.061Z,103390.00
2024-01-10T03:17:07.403Z,103395.03
2024-01-10T03:19:34.688Z,103390.06
2024-01-10T03:22:01.672Z,103392.56
2024-01-10T03:24:28.738Z,103384.06
2024-01-10T03:26:55.580Z,103386.94
2024-01-10T03:29:22.560Z,103386.53
2024-01-10T03:31:49.497Z,103383.00
2024-01-10T03:34:18.171Z,103383.22
2024-01-10T03:36:45.256Z,103381.16
2024-01-10T03:39:12.225Z,103383.00
2024-01-10T03:41:39.714Z,103382.00
2024-01-10T03:44:07.124Z,103385.53
2024-01-10T03:46:34.569Z,103393.78
2024-01-10T03:49:01.566Z,103388.84
2024-01-10T03:51:28.683Z,103389.25
2024-01-10T03:53:56.382Z,103387.41
2024-01-10T03:56:23.531Z,103375.78
2024-01-10T03:58:50.651Z,103375.97
2024-01-10T04:01:17.690Z,103369.13
2024-01-10T04:03:45.616Z,103370.97
2024-01-10T04:06:12.605Z,103373.50
2024-01-10T04:08:39.499Z,103369.53
2024-01-10T04:11:06.875Z,103373.91
2024-01-10T04:13:33.831Z,103377.22
2024-01-10T04:16:00.644Z,103373.69
2024-01-10T04:18:27.644Z,103360.00
2024-01-10T04:20:55.433Z,103362.50
2024-01-10T04:23:22.485Z,103360.00
2024-01-10T04:25:49.475Z,103369.09
2024-01-10T04:28:16.465Z,103366.63
2024-01-10T04:30:43.422Z,103369.31
2024-01-10T04:33:10.351Z,103366.41
2024-01-10T04:35:37.577Z,103369.09
2024-01-10T04:38:04.938Z,103376.16
2024-01-10T04:40:31.881Z,103371.38
2024-01-10T04:42:58.822Z,103366.22
2024-01-10T04:45:25.661Z,103368.91
2024-01-10T04:47:52.611Z,103360.22
2024-01-10T04:50:19.796Z,103358.94
2024-01-10T04:52:46.756Z,103356.84
2024-01-10T04:55:13.717Z,103350.63
2024-01-10T04:57:40.744Z,103358.72
2024-01-10T05:00:08.117Z,103356.44
2024-01-10T05:02:35.139Z,103348.16
2024-01-10T05:05:02.600Z,103360.78
2024-01-10T05:07:29.709Z,103363.72
2024-01-10T05:09:56.543Z,103348.56
2024-01-10T05:12:23.642Z,103352.50
2024-01-10T05:14:50.490Z,103341.91
2024-01-10T05:17:17.351Z,103345.84
2024-01-10T05:19:44.711Z,103339.00
2024-01-10T05:22:11.679Z,103348.53
2024-01-10T05:24:38.494Z,103343.16
2024-01-10T05:27:05.610Z,103342.31
2024-01-10T05:29:32.749Z,103347.25
2024-01-10T05:31:59.702Z,103345.63
2024-01-10T05:34:26.759Z,103345.41
2024-01-10T05:36:54.980Z,103342.72
2024-01-10T05:39:22.910Z,103337.72
2024-01-10T05:41:49.924Z,103336.09
2024-01-10T05:44:17.022Z,103344.16
2024-01-10T05:46:44.615Z,103335.69
2024-01-10T05:49:12.040Z,103332.16
2024-01-10T05:51:39.079Z,103336.47
2024-01-10T05:54:06.020Z,103339.00
2024-01-10T05:56:33.179Z,103330.69
2024-01-10T05:59:00.602Z,103336.91
2024-01-10T06:01:27.843Z,103336.09
2024-01-10T06:03:55.031Z,103328.22
2024-01-10T06:06:22.077Z,103333.38
2024-01-10T06:08:49.016Z,103333.59
2024-01-10T06:11:16.001Z,103331.53
2024-01-10T06:13:49.911Z,103329.66
2024-01-10T06:16:21.480Z,103329.88
2024-01-10T06:18:48.610Z,103333.59
2024-01-10T06:21:15.585Z,103339.63
2024-01-10T06:23:42.780Z,103331.94
2024-01-10T06:26:10.520Z,103331.31
2024-01-10T06:28:37.606Z,103334.63
2024-01-10T06:31:05.203Z,103336.31
2024-01-10T06:33:33.053Z,103328.84
2024-01-10T06:35:59.880Z,103327.81
2024-01-10T06:38:27.209Z,103328.44
2024-01-10T06:40:54.613Z,103334.88
2024-01-10T06:43:21.474Z,103335.91
2024-01-10T06:45:51.177Z,103339.22
2024-01-10T06:48:19.999Z,103336.09
2024-01-10T06:50:46.944Z,103337.97
2024-01-10T06:53:15.383Z,103337.78
2024-01-10T06:55:42.400Z,103341.50
2024-01-10T06:58:09.312Z,103330.09
2024-01-10T07:00:36.476Z,103331.78
2024-01-10T07:03:03.702Z,103339.47
2024-01-10T07:05:32.933Z,103335.28
2024-01-10T07:08:00.610Z,103331.34
2024-01-10T07:10:29.049Z,103329.47
2024-01-10T07:12:56.665Z,103333.63
2024-01-10T07:15:23.879Z,103336.50
2024-01-10T07:17:50.920Z,103346.28
2024-01-10T07:20:17.876Z,103348.97
2024-01-10T07:22:47.782Z,103349.59
2024-01-10T07:25:17.642Z,103352.94
2024-01-10T07:27:45.349Z,103351.44
2024-01-10T07:30:15.533Z,103350.63
2024-01-10T07:32:43.120Z,103347.94
2024-01-10T07:35:11.198Z,103347.94
2024-01-10T07:37:43.663Z,103355.81
2024-01-10T07:40:14.932Z,103353.72
2024-01-10T07:42:42.249Z,103352.09
2024-01-10T07:45:09.855Z,103359.13
2024-01-10T07:47:40.489Z,103355.41
2024-01-10T07:50:11.859Z,103349.00
2024-01-10T07:52:39.074Z,103352.31
2024-01-10T07:55:06.525Z,103360.22
2024-01-10T07:57:40.627Z,103359.78
2024-01-10T08:00:11.824Z,103354.97
2024-01-10T08:02:40.363Z,103359.78
2024-01-10T08:05:11.470Z,103363.09
2024-01-10T08:07:39.799Z,103355.22
2024-01-10T08:10:11.411Z,103364.13
2024-01-10T08:12:45.520Z,103354.41
2024-01-10T08:15:12.575Z,103358.56
2024-01-10T08:17:39.759Z,103350.91
2024-01-10T08:20:12.188Z,103353.19
2024-01-10T08:22:39.698Z,103357.97
2024-01-10T08:25:07.283Z,103356.72
2024-01-10T08:27:34.727Z,103355.69
2024-01-10T08:30:01.594Z,103363.56
2024-01-10T08:32:28.992Z,103371.47
2024-01-10T08:34:58.401Z,103354.47
2024-01-10T08:37:25.366Z,103360.28
2024-01-10T08:39:52.234Z,103359.66
2024-01-10T08:42:19.123Z,103360.91
2024-01-10T08:44:46.159Z,103354.69
2024-01-10T08:47:13.067Z,103362.59
2024-01-10T08:49:40.001Z,103356.97
2024-01-10T08:52:07.378Z,103357.00
2024-01-10T08:54:34.974Z,103357.81
2024-01-10T08:57:02.277Z,103359.88
2024-01-10T08:59:29.335Z,103358.03
2024-01-10T09:01:56.726Z,103350.56
2024-01-10T09:04:23.674Z,103357.63
2024-01-10T09:06:50.642Z,103359.91
2024-01-10T09:09:21.871Z,103362.19
2024-01-10T09:11:52.213Z,103364.47
2024-01-10T09:14:19.797Z,103356.81
2024-01-10T09:16:46.762Z,103358.88
2024-01-10T09:19:16.439Z,103360.53
2024-01-10T09:21:43.449Z,103366.31
2024-01-10T09:24:21.707Z,103361.34
2024-01-10T09:27:02.876Z,103373.41
2024-01-10T09:29:30.079Z,103365.91
2024-01-10T09:31:57.754Z,103368.84
2024-01-10T09:34:24.814Z,103362.78
2024-01-10T09:36:51.991Z,103356.13
2024-01-10T09:39:18.948Z,103370.66
2024-01-10T09:41:52.499Z,103366.28
2024-01-10T09:44:22.855Z,103366.69
2024-01-10T09:46:54.959Z,103371.25
2024-01-10T09:49:23.577Z,103363.56
2024-01-10T09:51:51.426Z,103371.06
2024-01-10T09:54:21.068Z,103367.94
2024-01-10T09:56:48.560Z,103371.25
2024-01-10T09:59:16.583Z,103375.19
2024-01-10T10:01:44.268Z,103376.22
2024-01-10T10:04:13.521Z,103382.22
2024-01-10T10:06:40.723Z,103372.00
2024-01-10T10:09:09.960Z,103363.91
2024-01-10T10:11:37.786Z,103368.88
2024-01-10T10:14:19.551Z,103362.63
2024-01-10T10:16:49.462Z,103368.44
2024-01-10T10:19:29.721Z,103361.16
2024-01-10T10:22:09.765Z,103359.66
2024-01-10T10:24:37.003Z,103349.25
2024-01-10T10:27:10.504Z,103347.53
2024-01-10T10:29:38.890Z,103351.50
2024-01-10T10:32:07.658Z,103349.19
2024-01-10T10:34:34.701Z,103357.03
2024-01-10T10:37:02.851Z,103348.94
2024-01-10T10:39:29.743Z,103350.59
2024-01-10T10:41:59.082Z,103350.34
2024-01-10T10:44:26.873Z,103345.59
2024-01-10T10:47:08.592Z,103344.53
2024-01-10T10:49:48.566Z,103348.50
2024-01-10T10:52:16.954Z,103343.28
2024-01-10T10:54:45.552Z,103340.75
2024-01-10T10:57:13.083Z,103345.91
2024-01-10T10:59:42.967Z,103352.56
2024-01-10T11:02:11.995Z,103354.66
2024-01-10T11:04:41.657Z,103357.53
2024-01-10T11:07:09.798Z,103351.53
2024-01-10T11:09:42.373Z,103356.72
2024-01-10T11:12:44.813Z,103355.63
2024-01-10T11:15:30.380Z,103353.97
2024-01-10T11:18:28.546Z,103365.03
2024-01-10T11:21:30.709Z,103349.81
2024-01-10T11:24:00.680Z,103359.78
2024-01-10T11:26:27.966Z,103344.81
2024-01-10T11:28:55.313Z,103351.50
2024-01-10T11:31:32.870Z,103351.03
2024-01-10T11:34:02.069Z,103345.56
2024-01-10T11:36:30.228Z,103342.00
2024-01-10T11:39:02.839Z,103326.59
2024-01-10T11:41:32.490Z,103327.38
2024-01-10T11:44:11.691Z,103330.91
2024-01-10T11:46:47.711Z,103324.22
2024-01-10T11:49:17.016Z,103316.31
2024-01-10T11:51:51.891Z,103317.09
2024-01-10T11:54:38.747Z,103333.53
2024-01-10T11:57:29.234Z,103328.13
2024-01-10T12:00:00.817Z,103329.16
2024-01-10T12:02:29.570Z,103327.88
2024-01-10T12:04:57.353Z,103326.19
2024-01-10T12:07:26.319Z,103323.66
2024-01-10T12:09:53.508Z,103329.41
2024-01-10T12:12:20.474Z,103329.56
2024-01-10T12:14:47.922Z,103324.59
2024-01-10T12:17:15.318Z,103322.72
2024-01-10T12:19:46.884Z,103312.25
2024-01-10T12:22:15.498Z,103315.03
2024-01-10T12:24:49.727Z,103310.25
2024-01-10T12:27:22.536Z,103304.38
2024-01-10T12:29:52.339Z,103299.09
2024-01-10T12:32:22.115Z,103286.94
2024-01-10T12:34:49.419Z,103285.78
2024-01-10T12:37:16.456Z,103285.41
2024-01-10T12:39:44.262Z,103285.25
2024-01-10T12:42:11.328Z,103283.97
2024-01-10T12:44:38.306Z,103279.97
2024-01-10T12:47:05.474Z,103285.25
2024-01-10T12:49:33.223Z,103278.78
2024-01-10T12:52:00.103Z,103268.09
2024-01-10T12:54:26.930Z,103269.13
2024-01-10T12:56:53.873Z,103279.53
2024-01-10T12:59:20.920Z,103270.50
2024-01-10T13:01:47.943Z,103279.84
2024-01-10T13:04:15.006Z,103273.38
2024-01-10T13:06:42.169Z,103275.00
2024-01-10T13:09:10.633Z,103275.19
2024-01-10T13:11:38.455Z,103265.00
2024-01-10T13:14:05.456Z,103274.44
2024-01-10T13:16:39.546Z,103271.84
2024-01-10T13:19:16.141Z,103256.22
2024-01-10T13:21:43.360Z,103257.84
2024-01-10T13:24:10.409Z,103248.69
2024-01-10T13:26:37.495Z,103243.84
2024-01-10T13:29:04.500Z,103249.44
2024-01-10T13:31:31.570Z,103254.59
2024-01-10T13:33:58.627Z,103259.44
2024-01-10T13:36:25.700Z,103249.50
2024-01-10T13:38:52.517Z,103254.09
2024-01-10T13:41:20.176Z,103261.19
2024-01-10T13:43:47.036Z,103260.09
2024-01-10T13:46:13.940Z,103259.31
2024-01-10T13:48:42.015Z,103268.63
2024-01-10T13:51:11.201Z,103261.78
2024-01-10T13:53:38.402Z,103262.81
2024-01-10T13:56:05.939Z,103268.03
2024-01-10T13:58:33.012Z,103268.25
2024-01-10T14:01:00.842Z,103261.78
2024-01-10T14:03:30.346Z,103268.03
2024-01-10T14:05:59.343Z,103257.19
2024-01-10T14:08:26.526Z,103267.19
2024-01-10T14:10:53.694Z,103260.56
2024-01-10T14:13:20.618Z,103258.47
2024-01-10T14:15:47.546Z,103265.53
2024-01-10T14:18:14.506Z,103265.78
2024-01-10T14:20:42.888Z,103251.97
2024-01-10T14:23:10.093Z,103253.50
2024-01-10T14:25:37.333Z,103251.84
2024-01-10T14:28:04.560Z,103251.25
2024-01-10T14:30:33.764Z,103247.91
2024-01-10T14:33:01.340Z,103252.28
2024-01-10T14:35:28.886Z,103249.81
2024-01-10T14:37:55.891Z,103241.91
2024-01-10T14:40:25.062Z,103244.84
2024-01-10T14:42:52.028Z,103244.22
2024-01-10T14:45:18.893Z,103250.56
2024-01-10T14:47:45.978Z,103245.38
2024-01-10T14:50:13.192Z,103241.25
2024-01-10T14:52:40.121Z,103236.63
2024-01-10T14:55:07.756Z,103237.72
2024-01-10T14:57:34.764Z,103225.66
2024-01-10T15:00:01.993Z,103221.28
2024-01-10T15:02:29.307Z,103228.44
2024-01-10T15:04:56.274Z,103227.47
2024-01-10T15:07:23.212Z,103233.94
2024-01-10T15:09:50.396Z,103223.78
2024-01-10T15:12:17.859Z,103230.22
2024-01-10T15:14:44.743Z,103229.50
2024-01-10T15:17:13.067Z,103229.31
2024-01-10T15:19:41.083Z,103231.22
2024-01-10T15:22:09.645Z,103226.69
2024-01-10T15:24:37.046Z,103236.06
2024-01-10T15:27:10.519Z,103240.88
2024-01-10T15:29:39.736Z,103247.78
2024-01-10T15:32:07.626Z,103245.97
2024-01-10T15:34:34.857Z,103253.50
2024-01-10T15:37:02.392Z,103252.72
2024-01-10T15:39:29.230Z,103255.41
2024-01-10T15:41:56.955Z,103249.03
2024-01-10T15:44:23.960Z,103256.53
2024-01-10T15:46:52.144Z,103257.81
2024-01-10T15:49:19.381Z,103256.19
2024-01-10T15:51:46.530Z,103260.81
2024-01-10T15:54:13.886Z,103262.88
2024-01-10T15:56:42.841Z,103257.91
2024-01-10T15:59:10.359Z,103260.66
2024-01-10T16:01:37.920Z,103267.13
2024-01-10T16:04:05.270Z,103268.56
2024-01-10T16:06:34.031Z,103276.53
2024-01-10T16:09:02.673Z,103277.75
2024-01-10T16:11:30.215Z,103282.56
2024-01-10T16:13:58.554Z,103280.09
2024-01-10T16:16:31.027Z,103284.69
2024-01-10T16:18:59.407Z,103280.75
2024-01-10T16:21:27.601Z,103283.44
2024-01-10T16:23:54.640Z,103282.22
2024-01-10T16:26:22.339Z,103278.31
2024-01-10T16:28:49.977Z,103276.03
2024-01-10T16:31:19.769Z,103278.50
2024-01-10T16:33:46.963Z,103284.13
2024-01-10T16:36:13.877Z,103275.63
2024-01-10T16:38:41.201Z,103279.16
2024-01-10T16:41:09.029Z,103280.81
2024-01-10T16:43:36.074Z,103278.09
2024-01-10T16:46:02.947Z,103274.78
2024-01-10T16:48:30.334Z,103283.75
2024-01-10T16:50:57.224Z,103280.00
2024-01-10T16:53:24.249Z,103276.06
2024-01-10T16:55:52.597Z,103274.00
2024-01-10T16:58:19.803Z,103271.97
2024-01-10T17:00:46.821Z,103282.31
2024-01-10T17:03:13.939Z,103280.00
2024-01-10T17:05:43.180Z,103275.84
2024-01-10T17:08:11.670Z,103283.94
2024-01-10T17:10:38.810Z,103277.50
2024-01-10T17:13:06.131Z,103282.91
2024-01-10T17:15:33.717Z,103285.63
2024-01-10T17:18:01.897Z,103288.16
2024-01-10T17:20:29.074Z,103291.88
2024-01-10T17:22:56.348Z,103294.63
2024-01-10T17:25:24.986Z,103296.50
2024-01-10T17:27:53.027Z,103293.19
2024-01-10T17:30:21.577Z,103300.03
2024-01-10T17:32:50.008Z,103292.16
2024-01-10T17:35:18.071Z,103297.97
2024-01-10T17:37:46.032Z,103289.47
2024-01-10T17:40:13.602Z,103290.13
2024-01-10T17:42:40.592Z,103292.00
2024-01-10T17:45:08.790Z,103285.16
2024-01-10T17:47:37.286Z,103289.91
2024-01-10T17:50:05.119Z,103294.47
2024-01-10T17:52:32.406Z,103292.41
2024-01-10T17:54:59.368Z,103291.56
2024-01-10T17:57:28.607Z,103290.94
2024-01-10T17:59:56.865Z,103289.50
2024-01-10T18:02:24.410Z,103298.44
2024-01-10T18:04:51.616Z,103296.56
2024-01-10T18:07:18.628Z,103301.56
2024-01-10T18:09:45.616Z,103298.25
2024-01-10T18:12:12.648Z,103306.13
2024-01-10T18:14:39.613Z,103311.38
2024-01-10T18:17:09.297Z,103305.31
2024-01-10T18:19:36.261Z,103305.97
2024-01-10T18:22:04.150Z,103306.13
2024-01-10T18:24:32.050Z,103309.25
2024-01-10T18:26:58.956Z,103314.06
2024-01-10T18:29:26.025Z,103309.69
2024-01-10T18:31:53.085Z,103318.47
2024-01-10T18:34:20.726Z,103329.25
2024-01-10T18:36:47.677Z,103321.78
2024-01-10T18:39:15.445Z,103328.84
2024-01-10T18:41:44.081Z,103335.28
2024-01-10T18:44:11.290Z,103339.47
2024-01-10T18:46:38.447Z,103334.94
2024-01-10T18:49:07.246Z,103344.47
2024-01-10T18:51:34.864Z,103339.91
2024-01-10T18:54:03.176Z,103341.97
2024-01-10T18:56:30.149Z,103343.66
2024-01-10T18:58:57.485Z,103351.16
2024-01-10T19:01:24.412Z,103354.03
2024-01-10T19:03:51.441Z,103353.25
2024-01-10T19:06:18.467Z,103353.66
2024-01-10T19:08:45.528Z,103367.16
2024-01-10T19:11:12.705Z,103363.81
2024-01-10T19:13:40.018Z,103362.19
2024-01-10T19:16:13.735Z,103369.44
2024-01-10T19:18:41.088Z,103381.09
2024-01-10T19:21:08.951Z,103368.41
2024-01-10T19:23:38.601Z,103366.13
2024-01-10T19:26:06.376Z,103366.13
2024-01-10T19:28:33.310Z,103370.28
2024-01-10T19:31:00.612Z,103367.56
2024-01-10T19:33:27.909Z,103369.66
2024-01-10T19:35:54.885Z,103378.78
2024-01-10T19:38:21.938Z,103375.47
2024-01-10T19:40:48.964Z,103382.75
2024-01-10T19:43:26.108Z,103386.69
2024-01-10T19:45:53.062Z,103396.03
2024-01-10T19:48:22.644Z,103395.00
2024-01-10T19:50:50.010Z,103398.72
2024-01-10T19:53:17.111Z,103388.13
2024-01-10T19:55:44.062Z,103390.22
2024-01-10T19:58:10.927Z,103390.22
2024-01-10T20:00:37.967Z,103394.59
2024-01-10T20:03:05.658Z,103394.16
2024-01-10T20:05:32.630Z,103389.78
2024-01-10T20:07:59.672Z,103393.97
2024-01-10T20:10:27.368Z,103388.97
2024-01-10T20:12:54.470Z,103382.09
2024-01-10T20:15:21.492Z,103388.53
2024-01-10T20:17:48.988Z,103395.81
2024-01-10T20:20:16.582Z,103388.13
2024-01-10T20:22:43.534Z,103380.63
2024-01-10T20:25:10.401Z,103391.41
2024-01-10T20:27:37.436Z,103381.69
2024-01-10T20:30:05.909Z,103387.69
2024-01-10T20:32:32.989Z,103381.28
2024-01-10T20:35:00.728Z,103379.41
2024-01-10T20:37:27.636Z,103386.25
2024-01-10T20:39:54.718Z,103397.06
2024-01-10T20:42:21.658Z,103398.47
2024-01-10T20:44:50.239Z,103391.00
2024-01-10T20:47:19.172Z,103391.84
2024-01-10T20:49:46.308Z,103398.91
2024-01-10T20:52:13.177Z,103395.38
2024-01-10T20:54:40.938Z,103401.38
2024-01-10T20:57:08.531Z,103400.34
2024-01-10T20:59:36.089Z,103402.22
2024-01-10T21:02:03.293Z,103402.41
2024-01-10T21:04:30.340Z,103407.19
2024-01-10T21:07:08.822Z,103409.69
2024-01-10T21:09:45.743Z,103408.41
2024-01-10T21:12:13.173Z,103406.72
2024-01-10T21:14:46.008Z,103400.09
2024-01-10T21:17:14.122Z,103396.97
2024-01-10T21:19:41.301Z,103398.22
2024-01-10T21:22:09.133Z,103401.31
2024-01-10T21:24:37.945Z,103405.47
2024-01-10T21:27:05.399Z,103406.50
2024-01-10T21:29:33.001Z,103397.97
2024-01-10T21:32:00.373Z,103397.56
2024-01-10T21:34:27.668Z,103400.88
2024-01-10T21:37:03.085Z,103404.19
2024-01-10T21:39:34.362Z,103400.44
2024-01-10T21:42:02.737Z,103399.84
2024-01-10T21:44:34.045Z,103397.53
2024-01-10T21:47:04.002Z,103402.28
2024-01-10T21:49:31.206Z,103404.34
2024-01-10T21:51:59.632Z,103396.28
2024-01-10T21:54:27.441Z,103398.34
2024-01-10T21:56:54.330Z,103396.69
2024-01-10T21:59:21.233Z,103408.28
2024-01-10T22:01:48.256Z,103418.47
2024-01-10T22:04:16.015Z,103417.00
2024-01-10T22:06:44.723Z,103419.69
2024-01-10T22:09:12.029Z,103422.78
2024-01-10T22:11:39.289Z,103439.19
2024-01-10T22:14:06.819Z,103439.59
2024-01-10T22:16:33.887Z,103443.31
2024-01-10T22:19:00.918Z,103446.56
2024-01-10T22:21:29.207Z,103450.94
2024-01-10T22:23:56.447Z,103458.00
2024-01-10T22:26:27.736Z,103451.38
2024-01-10T22:28:55.301Z,103457.63
2024-01-10T22:31:27.455Z,103465.88
2024-01-10T22:33:55.484Z,103468.56
2024-01-10T22:36:25.712Z,103469.22
2024-01-10T22:38:55.114Z,103473.34
2024-01-10T22:41:25.366Z,103475.41
2024-01-10T22:43:52.792Z,103470.03
2024-01-10T22:46:19.749Z,103472.72
2024-01-10T22:48:47.353Z,103474.56
2024-01-10T22:51:15.948Z,103472.06
2024-01-10T22:53:44.025Z,103472.06
2024-01-10T22:56:12.591Z,103473.91
2024-01-10T22:58:40.503Z,103475.78
2024-01-10T23:01:15.435Z,103474.53
2024-01-10T23:03:42.684Z,103481.59
2024-01-10T23:06:10.020Z,103475.78
2024-01-10T23:08:37.692Z,103483.22
2024-01-10T23:11:05.288Z,103475.78
2024-01-10T23:13:39.787Z,103471.59
2024-01-10T23:16:07.456Z,103472.63
2024-01-10T23:18:34.465Z,103474.31
2024-01-10T23:21:01.549Z,103460.97
2024-01-10T23:23:28.545Z,103469.06
2024-01-10T23:25:55.822Z,103470.94
2024-01-10T23:28:22.855Z,103472.78
2024-01-10T23:30:49.689Z,103473.19
2024-01-10T23:33:16.732Z,103468.19
2024-01-10T23:35:48.442Z,103476.06
2024-01-10T23:38:17.291Z,103467.38
2024-01-10T23:40:44.719Z,103462.53
2024-01-10T23:43:23.357Z,103456.53
2024-01-10T23:45:54.938Z,103459.84
2024-01-10T23:48:22.052Z,103459.38
2024-01-10T23:50:49.004Z,103467.69
2024-01-10T23:53:16.392Z,103469.00
2024-01-10T23:55:43.827Z,103465.63
2024-01-10T23:58:10.721Z,103468.53
